sensor_id;sensor_type;location;lat;lon;timestamp;P1;durP1;ratioP1;P2;durP2;ratioP2
11141;SDS011;5625;50.122;19.864;2022-11-14T00:01:56;106.70;;;47.33;;
11141;SDS011;5625;50.122;19.864;2022-11-14T00:04:24;97.83;;;45.60;;
11141;SDS011;5625;50.122;19.864;2022-11-14T00:06:55;105.07;;;46.93;;
11141;SDS011;5625;50.122;19.864;2022-11-14T00:09:23;149.00;;;46.23;;
11141;SDS011;5625;50.122;19.864;2022-11-14T00:11:53;97.97;;;46.03;;
11141;SDS011;5625;50.122;19.864;2022-11-14T00:14:22;96.53;;;45.47;;
11141;SDS011;5625;50.122;19.864;2022-11-14T00:16:50;151.50;;;46.30;;
11141;SDS011;5625;50.122;19.864;2022-11-14T00:19:18;106.37;;;44.23;;
11141;SDS011;5625;50.122;19.864;2022-11-14T00:21:47;108.87;;;45.57;;
11141;SDS011;5625;50.122;19.864;2022-11-14T00:24:15;109.67;;;45.73;;
11141;SDS011;5625;50.122;19.864;2022-11-14T00:26:43;131.50;;;45.17;;
11141;SDS011;5625;50.122;19.864;2022-11-14T00:29:12;191.17;;;47.33;;
11141;SDS011;5625;50.122;19.864;2022-11-14T00:31:41;117.10;;;46.17;;
11141;SDS011;5625;50.122;19.864;2022-11-14T00:34:09;134.57;;;42.70;;
11141;SDS011;5625;50.122;19.864;2022-11-14T00:36:37;111.27;;;41.43;;
11141;SDS011;5625;50.122;19.864;2022-11-14T00:39:06;131.67;;;39.73;;
11141;SDS011;5625;50.122;19.864;2022-11-14T00:41:35;129.60;;;39.77;;
11141;SDS011;5625;50.122;19.864;2022-11-14T00:44:04;89.60;;;39.53;;
11141;SDS011;5625;50.122;19.864;2022-11-14T00:46:33;115.63;;;37.23;;
11141;SDS011;5625;50.122;19.864;2022-11-14T00:49:01;81.63;;;37.50;;
11141;SDS011;5625;50.122;19.864;2022-11-14T00:51:29;96.80;;;37.37;;
11141;SDS011;5625;50.122;19.864;2022-11-14T00:54:00;197.43;;;39.27;;
11141;SDS011;5625;50.122;19.864;2022-11-14T00:56:28;96.73;;;36.53;;
11141;SDS011;5625;50.122;19.864;2022-11-14T00:58:56;123.03;;;37.90;;
11141;SDS011;5625;50.122;19.864;2022-11-14T01:01:25;85.10;;;37.23;;
11141;SDS011;5625;50.122;19.864;2022-11-14T01:03:54;73.93;;;34.90;;
11141;SDS011;5625;50.122;19.864;2022-11-14T01:06:22;86.97;;;35.60;;
11141;SDS011;5625;50.122;19.864;2022-11-14T01:08:51;81.80;;;36.80;;
11141;SDS011;5625;50.122;19.864;2022-11-14T01:11:19;138.53;;;35.40;;
11141;SDS011;5625;50.122;19.864;2022-11-14T01:13:48;85.80;;;33.10;;
11141;SDS011;5625;50.122;19.864;2022-11-14T01:16:17;70.20;;;33.87;;
11141;SDS011;5625;50.122;19.864;2022-11-14T01:18:51;98.00;;;30.87;;
11141;SDS011;5625;50.122;19.864;2022-11-14T01:21:27;66.80;;;28.90;;
11141;SDS011;5625;50.122;19.864;2022-11-14T01:23:55;68.30;;;26.80;;
11141;SDS011;5625;50.122;19.864;2022-11-14T01:26:24;57.13;;;28.87;;
11141;SDS011;5625;50.122;19.864;2022-11-14T01:28:52;54.80;;;28.30;;
11141;SDS011;5625;50.122;19.864;2022-11-14T01:31:21;51.10;;;27.37;;
11141;SDS011;5625;50.122;19.864;2022-11-14T01:33:51;51.57;;;27.63;;
11141;SDS011;5625;50.122;19.864;2022-11-14T01:36:20;56.90;;;28.87;;
11141;SDS011;5625;50.122;19.864;2022-11-14T01:38:52;68.93;;;29.43;;
11141;SDS011;5625;50.122;19.864;2022-11-14T01:41:20;51.33;;;27.83;;
11141;SDS011;5625;50.122;19.864;2022-11-14T01:43:48;61.00;;;27.90;;
11141;SDS011;5625;50.122;19.864;2022-11-14T01:46:18;64.47;;;28.63;;
11141;SDS011;5625;50.122;19.864;2022-11-14T01:48:51;51.93;;;27.17;;
11141;SDS011;5625;50.122;19.864;2022-11-14T01:51:23;54.33;;;25.97;;
11141;SDS011;5625;50.122;19.864;2022-11-14T01:53:56;59.83;;;26.93;;
11141;SDS011;5625;50.122;19.864;2022-11-14T01:56:26;49.90;;;26.10;;
11141;SDS011;5625;50.122;19.864;2022-11-14T01:58:57;56.50;;;25.73;;
11141;SDS011;5625;50.122;19.864;2022-11-14T02:01:29;58.07;;;23.07;;
11141;SDS011;5625;50.122;19.864;2022-11-14T02:04:00;44.60;;;23.90;;
11141;SDS011;5625;50.122;19.864;2022-11-14T02:06:32;40.30;;;22.73;;
11141;SDS011;5625;50.122;19.864;2022-11-14T02:09:04;84.10;;;24.93;;
11141;SDS011;5625;50.122;19.864;2022-11-14T02:11:33;47.30;;;24.73;;
11141;SDS011;5625;50.122;19.864;2022-11-14T02:14:04;41.00;;;23.50;;
11141;SDS011;5625;50.122;19.864;2022-11-14T02:16:35;69.30;;;21.93;;
11141;SDS011;5625;50.122;19.864;2022-11-14T02:19:04;38.53;;;20.53;;
11141;SDS011;5625;50.122;19.864;2022-11-14T02:21:34;68.43;;;22.50;;
11141;SDS011;5625;50.122;19.864;2022-11-14T02:24:04;51.33;;;22.20;;
11141;SDS011;5625;50.122;19.864;2022-11-14T02:26:35;53.57;;;20.97;;
11141;SDS011;5625;50.122;19.864;2022-11-14T02:29:05;42.70;;;19.47;;
11141;SDS011;5625;50.122;19.864;2022-11-14T02:31:34;57.57;;;19.80;;
11141;SDS011;5625;50.122;19.864;2022-11-14T02:34:02;44.30;;;19.23;;
11141;SDS011;5625;50.122;19.864;2022-11-14T02:36:31;37.07;;;18.63;;
11141;SDS011;5625;50.122;19.864;2022-11-14T02:39:00;50.00;;;19.37;;
11141;SDS011;5625;50.122;19.864;2022-11-14T02:41:28;45.43;;;17.70;;
11141;SDS011;5625;50.122;19.864;2022-11-14T02:43:56;52.20;;;18.00;;
11141;SDS011;5625;50.122;19.864;2022-11-14T02:46:24;38.70;;;16.93;;
11141;SDS011;5625;50.122;19.864;2022-11-14T02:48:52;58.07;;;17.50;;
11141;SDS011;5625;50.122;19.864;2022-11-14T02:51:23;31.43;;;17.77;;
11141;SDS011;5625;50.122;19.864;2022-11-14T02:53:51;31.60;;;16.57;;
11141;SDS011;5625;50.122;19.864;2022-11-14T02:56:20;31.00;;;17.07;;
11141;SDS011;5625;50.122;19.864;2022-11-14T02:58:55;29.53;;;17.77;;
11141;SDS011;5625;50.122;19.864;2022-11-14T03:01:24;29.93;;;17.23;;
11141;SDS011;5625;50.122;19.864;2022-11-14T03:03:52;34.47;;;17.40;;
11141;SDS011;5625;50.122;19.864;2022-11-14T03:06:20;32.70;;;17.27;;
11141;SDS011;5625;50.122;19.864;2022-11-14T03:08:48;45.77;;;16.67;;
11141;SDS011;5625;50.122;19.864;2022-11-14T03:11:16;51.77;;;16.60;;
11141;SDS011;5625;50.122;19.864;2022-11-14T03:13:46;39.17;;;15.93;;
11141;SDS011;5625;50.122;19.864;2022-11-14T03:16:14;32.63;;;15.70;;
11141;SDS011;5625;50.122;19.864;2022-11-14T03:18:48;28.53;;;15.57;;
11141;SDS011;5625;50.122;19.864;2022-11-14T03:21:17;67.67;;;17.53;;
11141;SDS011;5625;50.122;19.864;2022-11-14T03:23:47;28.13;;;16.70;;
11141;SDS011;5625;50.122;19.864;2022-11-14T03:26:21;29.60;;;15.93;;
11141;SDS011;5625;50.122;19.864;2022-11-14T03:28:51;29.03;;;15.63;;
11141;SDS011;5625;50.122;19.864;2022-11-14T03:31:20;36.17;;;16.90;;
11141;SDS011;5625;50.122;19.864;2022-11-14T03:33:48;39.33;;;17.80;;
11141;SDS011;5625;50.122;19.864;2022-11-14T03:36:16;38.23;;;17.40;;
11141;SDS011;5625;50.122;19.864;2022-11-14T03:38:44;52.13;;;17.77;;
11141;SDS011;5625;50.122;19.864;2022-11-14T03:41:13;39.33;;;17.73;;
11141;SDS011;5625;50.122;19.864;2022-11-14T03:43:43;52.93;;;17.33;;
11141;SDS011;5625;50.122;19.864;2022-11-14T03:46:20;48.87;;;17.37;;
11141;SDS011;5625;50.122;19.864;2022-11-14T03:48:54;47.13;;;16.17;;
11141;SDS011;5625;50.122;19.864;2022-11-14T03:51:22;36.77;;;16.50;;
11141;SDS011;5625;50.122;19.864;2022-11-14T03:53:50;47.77;;;16.27;;
11141;SDS011;5625;50.122;19.864;2022-11-14T03:56:18;36.00;;;16.40;;
11141;SDS011;5625;50.122;19.864;2022-11-14T03:58:47;41.57;;;14.70;;
11141;SDS011;5625;50.122;19.864;2022-11-14T04:01:17;36.50;;;14.80;;
11141;SDS011;5625;50.122;19.864;2022-11-14T04:03:46;41.33;;;14.93;;
11141;SDS011;5625;50.122;19.864;2022-11-14T04:06:21;37.63;;;15.03;;
11141;SDS011;5625;50.122;19.864;2022-11-14T04:08:50;54.87;;;14.97;;
11141;SDS011;5625;50.122;19.864;2022-11-14T04:11:18;34.80;;;14.70;;
11141;SDS011;5625;50.122;19.864;2022-11-14T04:13:46;35.87;;;14.87;;
11141;SDS011;5625;50.122;19.864;2022-11-14T04:16:14;98.63;;;15.13;;
11141;SDS011;5625;50.122;19.864;2022-11-14T04:18:42;34.73;;;14.10;;
11141;SDS011;5625;50.122;19.864;2022-11-14T04:21:12;29.80;;;13.70;;
11141;SDS011;5625;50.122;19.864;2022-11-14T04:23:40;37.87;;;13.73;;
11141;SDS011;5625;50.122;19.864;2022-11-14T04:26:08;31.83;;;13.53;;
11141;SDS011;5625;50.122;19.864;2022-11-14T04:28:36;56.13;;;14.80;;
11141;SDS011;5625;50.122;19.864;2022-11-14T04:31:04;59.17;;;14.73;;
11141;SDS011;5625;50.122;19.864;2022-11-14T04:33:32;50.60;;;15.47;;
11141;SDS011;5625;50.122;19.864;2022-11-14T04:36:00;71.57;;;15.90;;
11141;SDS011;5625;50.122;19.864;2022-11-14T04:38:30;49.63;;;16.17;;
11141;SDS011;5625;50.122;19.864;2022-11-14T04:40:58;64.20;;;16.60;;
11141;SDS011;5625;50.122;19.864;2022-11-14T04:43:26;60.87;;;16.83;;
11141;SDS011;5625;50.122;19.864;2022-11-14T04:45:54;43.47;;;16.23;;
11141;SDS011;5625;50.122;19.864;2022-11-14T04:48:23;29.80;;;15.53;;
11141;SDS011;5625;50.122;19.864;2022-11-14T04:50:51;60.80;;;16.57;;
11141;SDS011;5625;50.122;19.864;2022-11-14T04:53:19;76.67;;;16.47;;
11141;SDS011;5625;50.122;19.864;2022-11-14T04:55:48;49.07;;;15.97;;
11141;SDS011;5625;50.122;19.864;2022-11-14T04:58:16;83.47;;;16.10;;
11141;SDS011;5625;50.122;19.864;2022-11-14T05:00:44;95.33;;;16.10;;
11141;SDS011;5625;50.122;19.864;2022-11-14T05:03:13;89.20;;;17.40;;
11141;SDS011;5625;50.122;19.864;2022-11-14T05:05:41;36.57;;;16.67;;
11141;SDS011;5625;50.122;19.864;2022-11-14T05:08:09;38.00;;;16.63;;
11141;SDS011;5625;50.122;19.864;2022-11-14T05:10:44;33.87;;;16.03;;
11141;SDS011;5625;50.122;19.864;2022-11-14T05:13:14;34.40;;;17.67;;
11141;SDS011;5625;50.122;19.864;2022-11-14T05:15:42;29.83;;;16.33;;
11141;SDS011;5625;50.122;19.864;2022-11-14T05:18:10;66.33;;;17.10;;
11141;SDS011;5625;50.122;19.864;2022-11-14T05:20:38;32.27;;;16.97;;
11141;SDS011;5625;50.122;19.864;2022-11-14T05:23:10;36.07;;;16.50;;
11141;SDS011;5625;50.122;19.864;2022-11-14T05:25:45;33.83;;;16.93;;
11141;SDS011;5625;50.122;19.864;2022-11-14T05:28:14;64.57;;;16.30;;
11141;SDS011;5625;50.122;19.864;2022-11-14T05:30:42;30.53;;;16.30;;
11141;SDS011;5625;50.122;19.864;2022-11-14T05:33:11;50.90;;;16.67;;
11141;SDS011;5625;50.122;19.864;2022-11-14T05:35:42;39.00;;;16.73;;
11141;SDS011;5625;50.122;19.864;2022-11-14T05:38:10;62.80;;;16.90;;
11141;SDS011;5625;50.122;19.864;2022-11-14T05:40:38;63.53;;;17.27;;
11141;SDS011;5625;50.122;19.864;2022-11-14T05:43:08;40.70;;;16.53;;
11141;SDS011;5625;50.122;19.864;2022-11-14T05:45:38;72.67;;;15.70;;
11141;SDS011;5625;50.122;19.864;2022-11-14T05:48:06;102.60;;;16.73;;
11141;SDS011;5625;50.122;19.864;2022-11-14T05:50:34;64.20;;;16.80;;
11141;SDS011;5625;50.122;19.864;2022-11-14T05:53:02;81.30;;;17.13;;
11141;SDS011;5625;50.122;19.864;2022-11-14T05:55:36;30.33;;;16.13;;
11141;SDS011;5625;50.122;19.864;2022-11-14T05:58:11;47.63;;;15.63;;
11141;SDS011;5625;50.122;19.864;2022-11-14T06:00:48;56.33;;;15.03;;
11141;SDS011;5625;50.122;19.864;2022-11-14T06:03:19;37.17;;;14.20;;
11141;SDS011;5625;50.122;19.864;2022-11-14T06:05:47;40.30;;;13.87;;
11141;SDS011;5625;50.122;19.864;2022-11-14T06:08:15;25.20;;;15.80;;
11141;SDS011;5625;50.122;19.864;2022-11-14T06:10:43;29.80;;;15.00;;
11141;SDS011;5625;50.122;19.864;2022-11-14T06:13:11;32.40;;;15.33;;
11141;SDS011;5625;50.122;19.864;2022-11-14T06:15:49;72.10;;;15.80;;
11141;SDS011;5625;50.122;19.864;2022-11-14T06:18:17;48.07;;;14.77;;
11141;SDS011;5625;50.122;19.864;2022-11-14T06:20:46;100.57;;;16.53;;
11141;SDS011;5625;50.122;19.864;2022-11-14T06:23:14;32.33;;;15.70;;
11141;SDS011;5625;50.122;19.864;2022-11-14T06:25:49;105.43;;;15.73;;
11141;SDS011;5625;50.122;19.864;2022-11-14T06:28:17;119.70;;;15.57;;
11141;SDS011;5625;50.122;19.864;2022-11-14T06:30:56;77.77;;;15.30;;
11141;SDS011;5625;50.122;19.864;2022-11-14T06:33:25;37.57;;;15.13;;
11141;SDS011;5625;50.122;19.864;2022-11-14T06:35:56;96.97;;;14.77;;
11141;SDS011;5625;50.122;19.864;2022-11-14T06:38:25;31.10;;;13.83;;
11141;SDS011;5625;50.122;19.864;2022-11-14T06:41:00;36.77;;;13.50;;
11141;SDS011;5625;50.122;19.864;2022-11-14T06:43:31;20.80;;;13.33;;
11141;SDS011;5625;50.122;19.864;2022-11-14T06:46:01;62.53;;;13.37;;
11141;SDS011;5625;50.122;19.864;2022-11-14T06:48:30;27.20;;;13.30;;
11141;SDS011;5625;50.122;19.864;2022-11-14T06:50:58;51.73;;;14.13;;
11141;SDS011;5625;50.122;19.864;2022-11-14T06:53:28;130.50;;;17.50;;
11141;SDS011;5625;50.122;19.864;2022-11-14T06:55:58;112.37;;;17.23;;
11141;SDS011;5625;50.122;19.864;2022-11-14T06:58:27;105.10;;;15.40;;
11141;SDS011;5625;50.122;19.864;2022-11-14T07:01:02;128.57;;;15.63;;
11141;SDS011;5625;50.122;19.864;2022-11-14T07:03:37;47.30;;;14.53;;
11141;SDS011;5625;50.122;19.864;2022-11-14T07:06:07;55.13;;;13.73;;
11141;SDS011;5625;50.122;19.864;2022-11-14T07:08:36;51.50;;;13.23;;
11141;SDS011;5625;50.122;19.864;2022-11-14T07:11:06;36.23;;;13.67;;
11141;SDS011;5625;50.122;19.864;2022-11-14T07:13:35;46.93;;;12.00;;
11141;SDS011;5625;50.122;19.864;2022-11-14T07:16:05;24.87;;;13.20;;
11141;SDS011;5625;50.122;19.864;2022-11-14T07:18:41;18.20;;;11.53;;
11141;SDS011;5625;50.122;19.864;2022-11-14T07:21:09;54.70;;;13.37;;
11141;SDS011;5625;50.122;19.864;2022-11-14T07:23:39;25.67;;;12.17;;
11141;SDS011;5625;50.122;19.864;2022-11-14T07:26:09;91.40;;;13.07;;
11141;SDS011;5625;50.122;19.864;2022-11-14T07:28:38;17.27;;;11.50;;
11141;SDS011;5625;50.122;19.864;2022-11-14T07:31:09;19.23;;;11.47;;
11141;SDS011;5625;50.122;19.864;2022-11-14T07:33:39;19.20;;;11.47;;
11141;SDS011;5625;50.122;19.864;2022-11-14T07:36:08;16.43;;;11.93;;
11141;SDS011;5625;50.122;19.864;2022-11-14T07:38:37;48.37;;;12.17;;
11141;SDS011;5625;50.122;19.864;2022-11-14T07:41:07;28.90;;;11.40;;
11141;SDS011;5625;50.122;19.864;2022-11-14T07:43:36;35.33;;;11.87;;
11141;SDS011;5625;50.122;19.864;2022-11-14T07:46:05;26.60;;;11.70;;
11141;SDS011;5625;50.122;19.864;2022-11-14T07:48:35;21.33;;;11.60;;
11141;SDS011;5625;50.122;19.864;2022-11-14T07:51:04;16.37;;;10.93;;
11141;SDS011;5625;50.122;19.864;2022-11-14T07:53:33;51.23;;;12.70;;
11141;SDS011;5625;50.122;19.864;2022-11-14T07:56:03;52.60;;;12.53;;
11141;SDS011;5625;50.122;19.864;2022-11-14T07:58:33;22.07;;;11.13;;
11141;SDS011;5625;50.122;19.864;2022-11-14T08:01:03;25.60;;;11.37;;
11141;SDS011;5625;50.122;19.864;2022-11-14T08:03:32;19.70;;;12.03;;
11141;SDS011;5625;50.122;19.864;2022-11-14T08:06:08;38.57;;;12.33;;
11141;SDS011;5625;50.122;19.864;2022-11-14T08:08:38;39.50;;;13.10;;
11141;SDS011;5625;50.122;19.864;2022-11-14T08:11:09;17.73;;;12.30;;
11141;SDS011;5625;50.122;19.864;2022-11-14T08:14:00;32.33;;;12.97;;
11141;SDS011;5625;50.122;19.864;2022-11-14T08:16:34;20.53;;;13.97;;
11141;SDS011;5625;50.122;19.864;2022-11-14T08:19:03;26.07;;;14.40;;
11141;SDS011;5625;50.122;19.864;2022-11-14T08:21:33;54.30;;;14.00;;
11141;SDS011;5625;50.122;19.864;2022-11-14T08:24:02;22.10;;;14.60;;
11141;SDS011;5625;50.122;19.864;2022-11-14T08:26:30;33.67;;;14.53;;
11141;SDS011;5625;50.122;19.864;2022-11-14T08:28:59;52.17;;;15.27;;
11141;SDS011;5625;50.122;19.864;2022-11-14T08:31:28;29.30;;;15.07;;
11141;SDS011;5625;50.122;19.864;2022-11-14T08:33:56;26.57;;;14.67;;
11141;SDS011;5625;50.122;19.864;2022-11-14T08:36:30;66.97;;;15.47;;
11141;SDS011;5625;50.122;19.864;2022-11-14T08:39:06;34.90;;;14.83;;
11141;SDS011;5625;50.122;19.864;2022-11-14T08:41:35;45.73;;;15.60;;
11141;SDS011;5625;50.122;19.864;2022-11-14T08:44:03;19.10;;;14.67;;
11141;SDS011;5625;50.122;19.864;2022-11-14T08:46:32;39.87;;;14.77;;
11141;SDS011;5625;50.122;19.864;2022-11-14T08:49:00;27.27;;;13.30;;
11141;SDS011;5625;50.122;19.864;2022-11-14T08:51:28;23.90;;;13.07;;
11141;SDS011;5625;50.122;19.864;2022-11-14T08:54:03;26.37;;;12.37;;
11141;SDS011;5625;50.122;19.864;2022-11-14T08:56:31;37.90;;;13.10;;
11141;SDS011;5625;50.122;19.864;2022-11-14T08:59:01;56.27;;;14.13;;
11141;SDS011;5625;50.122;19.864;2022-11-14T09:01:30;23.10;;;14.20;;
11141;SDS011;5625;50.122;19.864;2022-11-14T09:03:58;43.43;;;13.47;;
11141;SDS011;5625;50.122;19.864;2022-11-14T09:06:27;28.07;;;13.07;;
11141;SDS011;5625;50.122;19.864;2022-11-14T09:08:55;42.37;;;14.23;;
11141;SDS011;5625;50.122;19.864;2022-11-14T09:11:25;24.47;;;13.80;;
11141;SDS011;5625;50.122;19.864;2022-11-14T09:13:53;31.73;;;14.40;;
11141;SDS011;5625;50.122;19.864;2022-11-14T09:16:28;24.27;;;13.80;;
11141;SDS011;5625;50.122;19.864;2022-11-14T09:18:57;23.60;;;14.53;;
11141;SDS011;5625;50.122;19.864;2022-11-14T09:21:25;34.10;;;15.47;;
11141;SDS011;5625;50.122;19.864;2022-11-14T09:23:53;66.97;;;17.03;;
11141;SDS011;5625;50.122;19.864;2022-11-14T09:26:29;22.50;;;16.00;;
11141;SDS011;5625;50.122;19.864;2022-11-14T09:28:57;23.20;;;16.17;;
11141;SDS011;5625;50.122;19.864;2022-11-14T09:31:26;42.63;;;16.00;;
11141;SDS011;5625;50.122;19.864;2022-11-14T09:33:54;33.63;;;13.73;;
11141;SDS011;5625;50.122;19.864;2022-11-14T09:36:24;20.03;;;14.10;;
11141;SDS011;5625;50.122;19.864;2022-11-14T09:38:52;36.53;;;14.87;;
11141;SDS011;5625;50.122;19.864;2022-11-14T09:41:24;20.20;;;13.83;;
11141;SDS011;5625;50.122;19.864;2022-11-14T09:46:58;33.97;;;13.93;;
11141;SDS011;5625;50.122;19.864;2022-11-14T09:49:36;43.33;;;14.00;;
11141;SDS011;5625;50.122;19.864;2022-11-14T09:52:08;38.07;;;14.60;;
11141;SDS011;5625;50.122;19.864;2022-11-14T09:54:48;38.77;;;15.33;;
11141;SDS011;5625;50.122;19.864;2022-11-14T09:57:19;48.13;;;15.30;;
11141;SDS011;5625;50.122;19.864;2022-11-14T09:59:48;27.63;;;15.93;;
11141;SDS011;5625;50.122;19.864;2022-11-14T10:02:24;25.30;;;15.77;;
11141;SDS011;5625;50.122;19.864;2022-11-14T10:05:07;25.47;;;15.23;;
11141;SDS011;5625;50.122;19.864;2022-11-14T10:07:54;22.23;;;14.13;;
11141;SDS011;5625;50.122;19.864;2022-11-14T10:10:49;32.70;;;15.33;;
11141;SDS011;5625;50.122;19.864;2022-11-14T10:13:29;39.97;;;15.57;;
11141;SDS011;5625;50.122;19.864;2022-11-14T10:16:13;32.03;;;15.90;;
11141;SDS011;5625;50.122;19.864;2022-11-14T10:18:50;18.37;;;14.47;;
11141;SDS011;5625;50.122;19.864;2022-11-14T10:21:36;45.63;;;16.23;;
11141;SDS011;5625;50.122;19.864;2022-11-14T10:24:16;32.20;;;15.43;;
11141;SDS011;5625;50.122;19.864;2022-11-14T10:27:03;20.40;;;14.47;;
11141;SDS011;5625;50.122;19.864;2022-11-14T10:29:40;27.10;;;13.63;;
11141;SDS011;5625;50.122;19.864;2022-11-14T10:32:26;18.83;;;13.53;;
11141;SDS011;5625;50.122;19.864;2022-11-14T10:35:11;17.83;;;13.50;;
11141;SDS011;5625;50.122;19.864;2022-11-14T10:37:45;16.90;;;13.17;;
11141;SDS011;5625;50.122;19.864;2022-11-14T10:40:21;28.67;;;13.83;;
11141;SDS011;5625;50.122;19.864;2022-11-14T10:42:59;19.77;;;14.77;;
11141;SDS011;5625;50.122;19.864;2022-11-14T10:45:33;40.33;;;15.03;;
11141;SDS011;5625;50.122;19.864;2022-11-14T10:48:07;31.17;;;15.07;;
11141;SDS011;5625;50.122;19.864;2022-11-14T10:50:41;60.63;;;15.80;;
11141;SDS011;5625;50.122;19.864;2022-11-14T10:53:24;45.87;;;16.13;;
11141;SDS011;5625;50.122;19.864;2022-11-14T10:55:59;22.30;;;14.50;;
11141;SDS011;5625;50.122;19.864;2022-11-14T10:58:30;28.87;;;16.03;;
11141;SDS011;5625;50.122;19.864;2022-11-14T11:01:32;17.77;;;14.50;;
11141;SDS011;5625;50.122;19.864;2022-11-14T11:04:13;22.83;;;15.40;;
11141;SDS011;5625;50.122;19.864;2022-11-14T11:06:52;18.73;;;14.97;;
11141;SDS011;5625;50.122;19.864;2022-11-14T11:09:23;43.17;;;15.50;;
11141;SDS011;5625;50.122;19.864;2022-11-14T11:12:14;23.03;;;15.90;;
11141;SDS011;5625;50.122;19.864;2022-11-14T11:14:44;42.90;;;14.77;;
11141;SDS011;5625;50.122;19.864;2022-11-14T11:17:15;20.07;;;15.50;;
11141;SDS011;5625;50.122;19.864;2022-11-14T11:19:46;18.70;;;14.20;;
11141;SDS011;5625;50.122;19.864;2022-11-14T11:22:29;22.90;;;13.67;;
11141;SDS011;5625;50.122;19.864;2022-11-14T11:25:02;31.63;;;14.33;;
11141;SDS011;5625;50.122;19.864;2022-11-14T11:28:02;35.80;;;15.27;;
11141;SDS011;5625;50.122;19.864;2022-11-14T11:30:32;27.83;;;15.37;;
11141;SDS011;5625;50.122;19.864;2022-11-14T11:33:13;18.97;;;15.37;;
11141;SDS011;5625;50.122;19.864;2022-11-14T11:35:42;27.60;;;16.27;;
11141;SDS011;5625;50.122;19.864;2022-11-14T11:38:21;25.23;;;15.80;;
11141;SDS011;5625;50.122;19.864;2022-11-14T11:40:53;30.53;;;14.80;;
11141;SDS011;5625;50.122;19.864;2022-11-14T11:43:26;21.00;;;14.83;;
11141;SDS011;5625;50.122;19.864;2022-11-14T11:46:08;25.50;;;14.77;;
11141;SDS011;5625;50.122;19.864;2022-11-14T11:48:43;25.03;;;15.80;;
11141;SDS011;5625;50.122;19.864;2022-11-14T11:51:18;39.87;;;16.37;;
11141;SDS011;5625;50.122;19.864;2022-11-14T11:53:54;28.77;;;16.13;;
11141;SDS011;5625;50.122;19.864;2022-11-14T11:56:32;30.93;;;15.93;;
11141;SDS011;5625;50.122;19.864;2022-11-14T11:59:08;33.97;;;16.03;;
11141;SDS011;5625;50.122;19.864;2022-11-14T12:02:02;20.97;;;15.67;;
11141;SDS011;5625;50.122;19.864;2022-11-14T12:04:43;35.03;;;16.47;;
11141;SDS011;5625;50.122;19.864;2022-11-14T12:07:11;33.73;;;16.90;;
11141;SDS011;5625;50.122;19.864;2022-11-14T12:09:45;51.00;;;16.63;;
11141;SDS011;5625;50.122;19.864;2022-11-14T12:12:37;31.57;;;15.90;;
11141;SDS011;5625;50.122;19.864;2022-11-14T12:15:21;40.37;;;16.50;;
11141;SDS011;5625;50.122;19.864;2022-11-14T12:20:46;40.70;;;16.90;;
11141;SDS011;5625;50.122;19.864;2022-11-14T12:26:37;55.03;;;17.60;;
11141;SDS011;5625;50.122;19.864;2022-11-14T12:29:33;35.10;;;19.27;;
11141;SDS011;5625;50.122;19.864;2022-11-14T12:32:14;58.83;;;18.80;;
11141;SDS011;5625;50.122;19.864;2022-11-14T12:34:45;34.37;;;18.47;;
11141;SDS011;5625;50.122;19.864;2022-11-14T12:37:19;50.87;;;20.17;;
11141;SDS011;5625;50.122;19.864;2022-11-14T12:39:53;38.57;;;20.27;;
11141;SDS011;5625;50.122;19.864;2022-11-14T12:42:25;41.63;;;20.60;;
11141;SDS011;5625;50.122;19.864;2022-11-14T12:44:53;66.60;;;20.57;;
11141;SDS011;5625;50.122;19.864;2022-11-14T12:47:24;86.73;;;21.90;;
11141;SDS011;5625;50.122;19.864;2022-11-14T12:49:57;35.80;;;21.03;;
11141;SDS011;5625;50.122;19.864;2022-11-14T12:52:43;49.47;;;21.97;;
11141;SDS011;5625;50.122;19.864;2022-11-14T12:58:23;50.47;;;21.10;;
11141;SDS011;5625;50.122;19.864;2022-11-14T13:04:25;39.10;;;23.13;;
11141;SDS011;5625;50.122;19.864;2022-11-14T13:07:15;62.80;;;23.70;;
11141;SDS011;5625;50.122;19.864;2022-11-14T13:10:09;40.47;;;22.57;;
11141;SDS011;5625;50.122;19.864;2022-11-14T13:12:40;38.23;;;22.10;;
11141;SDS011;5625;50.122;19.864;2022-11-14T13:15:35;37.43;;;23.37;;
11141;SDS011;5625;50.122;19.864;2022-11-14T13:18:31;38.87;;;22.93;;
11141;SDS011;5625;50.122;19.864;2022-11-14T13:21:28;40.37;;;23.07;;
11141;SDS011;5625;50.122;19.864;2022-11-14T13:24:12;36.40;;;21.93;;
11141;SDS011;5625;50.122;19.864;2022-11-14T13:26:43;35.87;;;22.00;;
11141;SDS011;5625;50.122;19.864;2022-11-14T13:32:52;38.37;;;22.30;;
11141;SDS011;5625;50.122;19.864;2022-11-14T13:41:55;51.73;;;23.87;;
11141;SDS011;5625;50.122;19.864;2022-11-14T13:47:41;44.33;;;23.00;;
11141;SDS011;5625;50.122;19.864;2022-11-14T13:50:25;64.10;;;24.53;;
11141;SDS011;5625;50.122;19.864;2022-11-14T13:52:57;50.80;;;25.60;;
11141;SDS011;5625;50.122;19.864;2022-11-14T13:55:27;50.37;;;26.23;;
11141;SDS011;5625;50.122;19.864;2022-11-14T13:58:06;58.57;;;26.70;;
11141;SDS011;5625;50.122;19.864;2022-11-14T14:00:46;69.87;;;27.50;;
11141;SDS011;5625;50.122;19.864;2022-11-14T14:03:35;57.03;;;27.20;;
11141;SDS011;5625;50.122;19.864;2022-11-14T14:06:21;45.97;;;26.70;;
11141;SDS011;5625;50.122;19.864;2022-11-14T14:09:08;64.70;;;26.47;;
11141;SDS011;5625;50.122;19.864;2022-11-14T14:11:50;44.80;;;26.20;;
11141;SDS011;5625;50.122;19.864;2022-11-14T14:14:37;51.23;;;25.40;;
11141;SDS011;5625;50.122;19.864;2022-11-14T14:17:29;70.33;;;25.63;;
11141;SDS011;5625;50.122;19.864;2022-11-14T14:20:09;51.00;;;27.10;;
11141;SDS011;5625;50.122;19.864;2022-11-14T14:22:52;58.13;;;27.43;;
11141;SDS011;5625;50.122;19.864;2022-11-14T14:25:28;66.17;;;27.20;;
11141;SDS011;5625;50.122;19.864;2022-11-14T14:28:05;56.67;;;28.57;;
11141;SDS011;5625;50.122;19.864;2022-11-14T14:31:01;61.20;;;29.03;;
11141;SDS011;5625;50.122;19.864;2022-11-14T14:33:38;52.20;;;29.00;;
11141;SDS011;5625;50.122;19.864;2022-11-14T14:36:15;51.47;;;28.20;;
11141;SDS011;5625;50.122;19.864;2022-11-14T14:38:49;66.07;;;29.93;;
11141;SDS011;5625;50.122;19.864;2022-11-14T14:41:18;54.30;;;29.67;;
11141;SDS011;5625;50.122;19.864;2022-11-14T14:43:51;67.80;;;34.13;;
11141;SDS011;5625;50.122;19.864;2022-11-14T14:46:28;73.20;;;35.87;;
11141;SDS011;5625;50.122;19.864;2022-11-14T14:49:03;107.97;;;41.87;;
11141;SDS011;5625;50.122;19.864;2022-11-14T14:51:35;84.10;;;41.67;;
11141;SDS011;5625;50.122;19.864;2022-11-14T14:54:17;81.63;;;37.27;;
11141;SDS011;5625;50.122;19.864;2022-11-14T14:56:52;93.27;;;37.10;;
11141;SDS011;5625;50.122;19.864;2022-11-14T14:59:26;78.47;;;37.77;;
11141;SDS011;5625;50.122;19.864;2022-11-14T15:01:55;97.83;;;38.63;;
11141;SDS011;5625;50.122;19.864;2022-11-14T15:04:25;77.97;;;36.63;;
11141;SDS011;5625;50.122;19.864;2022-11-14T15:07:00;64.93;;;32.93;;
11141;SDS011;5625;50.122;19.864;2022-11-14T15:09:31;78.83;;;32.40;;
11141;SDS011;5625;50.122;19.864;2022-11-14T15:12:00;68.73;;;31.57;;
11141;SDS011;5625;50.122;19.864;2022-11-14T15:14:29;180.37;;;31.80;;
11141;SDS011;5625;50.122;19.864;2022-11-14T15:17:04;62.03;;;31.20;;
11141;SDS011;5625;50.122;19.864;2022-11-14T15:19:46;94.37;;;31.60;;
11141;SDS011;5625;50.122;19.864;2022-11-14T15:22:22;122.37;;;31.43;;